AMU21 ZSQD-VMMC
Flight info
| Callsign | AMU21 |
|---|---|
| Flight time | N/A |
| Altitude | 31100 |
| Route | LAT81D LATUX W108 SOSMA/K0867S0980 W113 GORPI/K0857S1010 B221 ODULO V2 HSH/K0870S0980 G455 PK/K0865S1010 W116 JTN/K0870S0980 A599 NXD W131 AKDIM A470 DUBGO W134 ELNEX A599 CON |
| Aircraft | A321/M-SDE3FGHIRWY/LB1 |
Departure
| Time | 2026-04-15 12:09 |
|---|---|
| Airport | Qingdao Jiaodong International Airport (ZSQD) |
Arrival
| Time | N/A |
|---|---|
| Airport | Macau International Airport (VMMC) |
| Time | Latitude | Longitude | Altitude | Speed | Heading |
|---|---|---|---|---|---|
| 2026-04-15 11:45 | 36.36228 | 120.08059 | 38 ft | 0 kts | 56° |
| 2026-04-15 12:00 | 36.36218 | 120.08040 | 37 ft | 4 kts | 56° |
| 2026-04-15 12:00 | 36.36203 | 120.08012 | 37 ft | 4 kts | 56° |
| 2026-04-15 12:00 | 36.36188 | 120.07984 | 36 ft | 4 kts | 56° |
| 2026-04-15 12:00 | 36.36173 | 120.07958 | 36 ft | 4 kts | 38° |
| 2026-04-15 12:01 | 36.36151 | 120.07947 | 37 ft | 4 kts | 353° |
| 2026-04-15 12:01 | 36.36125 | 120.07956 | 37 ft | 4 kts | 340° |
| 2026-04-15 12:01 | 36.36119 | 120.07959 | 37 ft | 0 kts | 342° |
| 2026-04-15 12:03 | 36.36121 | 120.07958 | 37 ft | 0 kts | 342° |
| 2026-04-15 12:03 | 36.36126 | 120.07956 | 36 ft | 1 kts | 342° |
| 2026-04-15 12:04 | 36.36160 | 120.07942 | 37 ft | 9 kts | 342° |
| 2026-04-15 12:04 | 36.36226 | 120.07916 | 37 ft | 10 kts | 342° |
| 2026-04-15 12:04 | 36.36293 | 120.07889 | 37 ft | 10 kts | 342° |
| 2026-04-15 12:04 | 36.36363 | 120.07862 | 37 ft | 11 kts | 342° |
| 2026-04-15 12:05 | 36.36433 | 120.07835 | 38 ft | 10 kts | 342° |
| 2026-04-15 12:05 | 36.36478 | 120.07776 | 38 ft | 10 kts | 279° |
| 2026-04-15 12:05 | 36.36516 | 120.07709 | 38 ft | 10 kts | 330° |
| 2026-04-15 12:05 | 36.36585 | 120.07680 | 38 ft | 12 kts | 342° |
| 2026-04-15 12:06 | 36.36682 | 120.07642 | 38 ft | 15 kts | 342° |
| 2026-04-15 12:06 | 36.36784 | 120.07602 | 38 ft | 15 kts | 342° |
| 2026-04-15 12:06 | 36.36885 | 120.07562 | 38 ft | 15 kts | 342° |
| 2026-04-15 12:06 | 36.36987 | 120.07522 | 38 ft | 15 kts | 342° |
| 2026-04-15 12:07 | 36.37086 | 120.07484 | 38 ft | 11 kts | 342° |
| 2026-04-15 12:07 | 36.37159 | 120.07451 | 35 ft | 11 kts | 329° |
| 2026-04-15 12:07 | 36.37173 | 120.07369 | 38 ft | 11 kts | 255° |
| 2026-04-15 12:07 | 36.37147 | 120.07279 | 37 ft | 12 kts | 245° |
| 2026-04-15 12:08 | 36.37090 | 120.07202 | 34 ft | 13 kts | 211° |
| 2026-04-15 12:08 | 36.36966 | 120.07221 | 36 ft | 43 kts | 163° |
| 2026-04-15 12:08 | 36.36419 | 120.07435 | 40 ft | 119 kts | 162° |
| 2026-04-15 12:08 | 36.35429 | 120.07824 | 92 ft | 173 kts | 162° |
| 2026-04-15 12:09 | 36.34234 | 120.08294 | 698 ft | 188 kts | 163° |
| 2026-04-15 12:09 | 36.32973 | 120.08785 | 1581 ft | 189 kts | 163° |
| 2026-04-15 12:09 | 36.31711 | 120.09280 | 2289 ft | 192 kts | 163° |
| 2026-04-15 12:09 | 36.30376 | 120.09804 | 2472 ft | 211 kts | 162° |
| 2026-04-15 12:10 | 36.28907 | 120.10381 | 2602 ft | 232 kts | 162° |
| 2026-04-15 12:10 | 36.27351 | 120.11049 | 2983 ft | 240 kts | 153° |
| 2026-04-15 12:10 | 36.26136 | 120.12494 | 3277 ft | 255 kts | 115° |
| 2026-04-15 12:10 | 36.25847 | 120.14682 | 3805 ft | 264 kts | 85° |
| 2026-04-15 12:11 | 36.26230 | 120.16919 | 4455 ft | 268 kts | 73° |
| 2026-04-15 12:11 | 36.26848 | 120.19103 | 5138 ft | 270 kts | 70° |
| 2026-04-15 12:11 | 36.27528 | 120.21278 | 5816 ft | 272 kts | 69° |
| 2026-04-15 12:11 | 36.28203 | 120.23468 | 6473 ft | 273 kts | 70° |
| 2026-04-15 12:12 | 36.28856 | 120.25698 | 7131 ft | 276 kts | 71° |
| 2026-04-15 12:12 | 36.29484 | 120.27961 | 7754 ft | 279 kts | 72° |
| 2026-04-15 12:12 | 36.30092 | 120.30255 | 8365 ft | 282 kts | 74° |
| 2026-04-15 12:12 | 36.30287 | 120.32659 | 8925 ft | 284 kts | 99° |
| 2026-04-15 12:13 | 36.29566 | 120.34937 | 9479 ft | 288 kts | 126° |
| 2026-04-15 12:13 | 36.28061 | 120.36568 | 10030 ft | 292 kts | 154° |
| 2026-04-15 12:13 | 36.26112 | 120.37449 | 10302 ft | 308 kts | 161° |
| 2026-04-15 12:13 | 36.24032 | 120.38260 | 10450 ft | 327 kts | 162° |
| 2026-04-15 12:14 | 36.21791 | 120.39112 | 10574 ft | 346 kts | 162° |
| 2026-04-15 12:14 | 36.19431 | 120.40006 | 10699 ft | 363 kts | 162° |
| 2026-04-15 12:14 | 36.16959 | 120.40947 | 10820 ft | 380 kts | 162° |
| 2026-04-15 12:14 | 36.14394 | 120.41930 | 11120 ft | 390 kts | 162° |
| 2026-04-15 12:15 | 36.11785 | 120.42933 | 11613 ft | 394 kts | 162° |
| 2026-04-15 12:15 | 36.09153 | 120.43949 | 12145 ft | 398 kts | 161° |
| 2026-04-15 12:15 | 36.06495 | 120.44980 | 12680 ft | 402 kts | 161° |
| 2026-04-15 12:15 | 36.03817 | 120.46023 | 13182 ft | 406 kts | 162° |
| 2026-04-15 12:16 | 36.01114 | 120.47072 | 13661 ft | 410 kts | 162° |
| 2026-04-15 12:16 | 35.98366 | 120.48136 | 14139 ft | 415 kts | 162° |
| 2026-04-15 12:16 | 35.92787 | 120.50807 | 15072 ft | 424 kts | 155° |
| 2026-04-15 12:17 | 35.90092 | 120.52294 | 15524 ft | 429 kts | 156° |
| 2026-04-15 12:17 | 35.87352 | 120.53797 | 15965 ft | 433 kts | 156° |
| 2026-04-15 12:17 | 35.84583 | 120.55314 | 16405 ft | 437 kts | 156° |
| 2026-04-15 12:17 | 35.81794 | 120.56842 | 16830 ft | 441 kts | 156° |
| 2026-04-15 12:18 | 35.78969 | 120.58386 | 17217 ft | 446 kts | 156° |
| 2026-04-15 12:18 | 35.76120 | 120.59940 | 17623 ft | 449 kts | 157° |
| 2026-04-15 12:18 | 35.73248 | 120.61510 | 17990 ft | 453 kts | 156° |
| 2026-04-15 12:18 | 35.70399 | 120.63208 | 18377 ft | 457 kts | 153° |
| 2026-04-15 12:19 | 35.67580 | 120.65063 | 18766 ft | 460 kts | 152° |
| 2026-04-15 12:19 | 35.64793 | 120.67008 | 19143 ft | 464 kts | 150° |
| 2026-04-15 12:19 | 35.61988 | 120.69005 | 19526 ft | 467 kts | 150° |
| 2026-04-15 12:19 | 35.59165 | 120.71005 | 19899 ft | 469 kts | 151° |
| 2026-04-15 12:20 | 35.56311 | 120.72988 | 20266 ft | 472 kts | 152° |
| 2026-04-15 12:20 | 35.53427 | 120.74951 | 20623 ft | 475 kts | 152° |
| 2026-04-15 12:20 | 35.50554 | 120.76880 | 20976 ft | 477 kts | 152° |
| 2026-04-15 12:20 | 35.47548 | 120.78744 | 21315 ft | 479 kts | 159° |
| 2026-04-15 12:21 | 35.44449 | 120.80267 | 21662 ft | 481 kts | 160° |
| 2026-04-15 12:21 | 35.41334 | 120.81794 | 21989 ft | 484 kts | 160° |
| 2026-04-15 12:21 | 35.38203 | 120.83338 | 22319 ft | 486 kts | 160° |
| 2026-04-15 12:21 | 35.35065 | 120.84895 | 22646 ft | 488 kts | 160° |
| 2026-04-15 12:22 | 35.31903 | 120.86469 | 22964 ft | 491 kts | 160° |
| 2026-04-15 12:22 | 35.28738 | 120.88040 | 23283 ft | 493 kts | 160° |
| 2026-04-15 12:22 | 35.25584 | 120.89597 | 23584 ft | 495 kts | 160° |
| 2026-04-15 12:22 | 35.22391 | 120.91170 | 23888 ft | 497 kts | 160° |
| 2026-04-15 12:23 | 35.19178 | 120.92751 | 24186 ft | 499 kts | 160° |
| 2026-04-15 12:23 | 35.15956 | 120.94338 | 24497 ft | 501 kts | 161° |
| 2026-04-15 12:23 | 35.12715 | 120.95938 | 24808 ft | 502 kts | 161° |
| 2026-04-15 12:23 | 35.09473 | 120.97546 | 25162 ft | 502 kts | 161° |
| 2026-04-15 12:24 | 35.07291 | 120.98633 | 25463 ft | 501 kts | 161° |
| 2026-04-15 12:24 | 35.04110 | 121.00220 | 25901 ft | 499 kts | 162° |
| 2026-04-15 12:24 | 35.00902 | 121.01817 | 26340 ft | 498 kts | 162° |
| 2026-04-15 12:24 | 34.97701 | 121.03409 | 26752 ft | 497 kts | 162° |
| 2026-04-15 12:25 | 34.94505 | 121.04997 | 27151 ft | 495 kts | 163° |
| 2026-04-15 12:25 | 34.91322 | 121.06570 | 27534 ft | 493 kts | 163° |
| 2026-04-15 12:25 | 34.87837 | 121.08283 | 27927 ft | 492 kts | 164° |
| 2026-04-15 12:25 | 34.84965 | 121.09698 | 28253 ft | 491 kts | 164° |
| 2026-04-15 12:26 | 34.81798 | 121.11262 | 28615 ft | 491 kts | 165° |
| 2026-04-15 12:26 | 34.78634 | 121.12821 | 28992 ft | 490 kts | 165° |
| 2026-04-15 12:26 | 34.75481 | 121.14376 | 29362 ft | 489 kts | 165° |
| 2026-04-15 12:26 | 34.72335 | 121.15927 | 29706 ft | 488 kts | 165° |
| 2026-04-15 12:27 | 34.69191 | 121.17476 | 30041 ft | 486 kts | 166° |
| 2026-04-15 12:27 | 34.66055 | 121.19018 | 30384 ft | 487 kts | 166° |
| 2026-04-15 12:27 | 34.62919 | 121.20553 | 30704 ft | 484 kts | 166° |
| 2026-04-15 12:27 | 34.59797 | 121.22082 | 31017 ft | 484 kts | 167° |
| 2026-04-15 12:28 | 34.56675 | 121.23607 | 31112 ft | 484 kts | 166° |
| 2026-04-15 12:28 | 34.50422 | 121.26673 | 31126 ft | 484 kts | 167° |
| 2026-04-15 12:29 | 34.44162 | 121.29745 | 31125 ft | 484 kts | 167° |
| 2026-04-15 12:29 | 34.37917 | 121.32786 | 31123 ft | 484 kts | 167° |
| 2026-04-15 12:30 | 34.31664 | 121.35821 | 31142 ft | 483 kts | 167° |
| 2026-04-15 12:30 | 34.25404 | 121.38854 | 31143 ft | 486 kts | 166° |
| 2026-04-15 12:31 | 34.19169 | 121.41889 | 31140 ft | 483 kts | 167° |
| 2026-04-15 12:31 | 34.12916 | 121.44926 | 31114 ft | 482 kts | 167° |
| 2026-04-15 12:32 | 34.06682 | 121.47960 | 31113 ft | 484 kts | 167° |
| 2026-04-15 12:32 | 34.00432 | 121.51000 | 31116 ft | 485 kts | 167° |
| 2026-04-15 12:33 | 33.94166 | 121.54007 | 31123 ft | 485 kts | 167° |
| 2026-04-15 12:33 | 33.87893 | 121.57033 | 31130 ft | 486 kts | 167° |
| 2026-04-15 12:34 | 33.81545 | 121.59291 | 31133 ft | 462 kts | 185° |
| 2026-04-15 12:34 | 33.78441 | 121.59223 | 31129 ft | 444 kts | 198° |
| 2026-04-15 12:34 | 33.75507 | 121.58316 | 31119 ft | 428 kts | 211° |
| 2026-04-15 12:34 | 33.72913 | 121.56679 | 31117 ft | 414 kts | 223° |
| 2026-04-15 12:35 | 33.70761 | 121.54462 | 31113 ft | 404 kts | 233° |
| 2026-04-15 12:35 | 33.67758 | 121.48904 | 31111 ft | 395 kts | 245° |
| 2026-04-15 12:35 | 33.66049 | 121.46285 | 31106 ft | 408 kts | 225° |
| 2026-04-15 12:36 | 33.63414 | 121.44555 | 31107 ft | 428 kts | 204° |
| 2026-04-15 12:36 | 33.60515 | 121.44136 | 31102 ft | 452 kts | 184° |
| 2026-04-15 12:36 | 33.57365 | 121.45003 | 31151 ft | 477 kts | 168° |
| 2026-04-15 12:36 | 33.54303 | 121.46513 | 31281 ft | 485 kts | 164° |
| 2026-04-15 12:37 | 33.51242 | 121.48241 | 31519 ft | 488 kts | 162° |
| 2026-04-15 12:37 | 33.48194 | 121.50038 | 31831 ft | 487 kts | 163° |
| 2026-04-15 12:37 | 33.45153 | 121.51801 | 32085 ft | 485 kts | 164° |
| 2026-04-15 12:38 | 33.39034 | 121.55117 | 32121 ft | 480 kts | 166° |
| 2026-04-15 12:38 | 33.32860 | 121.57939 | 32120 ft | 463 kts | 179° |
| 2026-04-15 12:38 | 33.29732 | 121.58306 | 32127 ft | 444 kts | 192° |
| 2026-04-15 12:39 | 33.26680 | 121.58008 | 32126 ft | 439 kts | 195° |
| 2026-04-15 12:39 | 33.20591 | 121.57304 | 32126 ft | 440 kts | 195° |
| 2026-04-15 12:40 | 33.14495 | 121.56604 | 32133 ft | 439 kts | 195° |
| 2026-04-15 12:40 | 33.08409 | 121.55913 | 32132 ft | 439 kts | 194° |
| 2026-04-15 12:41 | 33.02317 | 121.55222 | 32138 ft | 440 kts | 194° |
| 2026-04-15 12:41 | 32.96224 | 121.54534 | 32142 ft | 439 kts | 194° |
| 2026-04-15 12:42 | 32.90141 | 121.53848 | 32145 ft | 439 kts | 194° |
| 2026-04-15 12:42 | 32.84212 | 121.53175 | 32147 ft | 438 kts | 194° |
| 2026-04-15 12:43 | 32.78335 | 121.52512 | 32149 ft | 438 kts | 194° |
| 2026-04-15 12:43 | 32.72299 | 121.51836 | 32146 ft | 438 kts | 194° |
| 2026-04-15 12:44 | 32.66221 | 121.51153 | 32148 ft | 439 kts | 194° |
| 2026-04-15 12:44 | 32.60147 | 121.50470 | 32149 ft | 439 kts | 194° |
| 2026-04-15 12:45 | 32.54073 | 121.49792 | 32152 ft | 438 kts | 194° |
| 2026-04-15 12:45 | 32.48005 | 121.49120 | 32149 ft | 437 kts | 194° |
| 2026-04-15 12:46 | 32.41943 | 121.48442 | 32148 ft | 437 kts | 194° |
| 2026-04-15 12:46 | 32.35889 | 121.47764 | 32160 ft | 437 kts | 194° |
| 2026-04-15 12:47 | 32.29839 | 121.47089 | 32169 ft | 436 kts | 194° |
| 2026-04-15 12:47 | 32.23791 | 121.46411 | 32173 ft | 436 kts | 194° |
| 2026-04-15 12:48 | 32.17784 | 121.45745 | 32174 ft | 436 kts | 194° |
| 2026-04-15 12:48 | 32.11741 | 121.45079 | 32172 ft | 436 kts | 194° |
| 2026-04-15 12:49 | 32.05698 | 121.44402 | 32172 ft | 436 kts | 194° |
| 2026-04-15 12:49 | 31.99658 | 121.43730 | 32171 ft | 435 kts | 194° |
| 2026-04-15 12:50 | 31.93624 | 121.43068 | 32164 ft | 436 kts | 194° |
| 2026-04-15 12:50 | 31.87574 | 121.42403 | 32159 ft | 437 kts | 194° |
| 2026-04-15 12:51 | 31.81512 | 121.41734 | 32158 ft | 438 kts | 194° |
| 2026-04-15 12:51 | 31.75445 | 121.41063 | 32159 ft | 438 kts | 194° |
| 2026-04-15 12:52 | 31.69364 | 121.40393 | 32163 ft | 439 kts | 194° |
| 2026-04-15 12:52 | 31.63274 | 121.39731 | 32164 ft | 439 kts | 194° |
| 2026-04-15 12:53 | 31.57188 | 121.39064 | 32166 ft | 440 kts | 194° |
| 2026-04-15 12:53 | 31.51136 | 121.38397 | 32170 ft | 440 kts | 194° |
| 2026-04-15 12:54 | 31.45036 | 121.37727 | 32171 ft | 440 kts | 194° |
| 2026-04-15 12:54 | 31.38939 | 121.37063 | 32166 ft | 441 kts | 194° |
| 2026-04-15 12:55 | 31.32822 | 121.36400 | 32165 ft | 441 kts | 194° |
| 2026-04-15 12:55 | 31.26710 | 121.35730 | 32160 ft | 442 kts | 194° |
| 2026-04-15 12:56 | 31.20588 | 121.35004 | 32156 ft | 437 kts | 199° |
| 2026-04-15 12:56 | 31.17714 | 121.34047 | 32154 ft | 423 kts | 211° |
| 2026-04-15 12:56 | 31.15156 | 121.32457 | 32158 ft | 412 kts | 221° |
| 2026-04-15 12:56 | 31.13013 | 121.30364 | 32151 ft | 403 kts | 232° |
| 2026-04-15 12:57 | 31.11266 | 121.27793 | 32146 ft | 397 kts | 242° |
| 2026-04-15 12:57 | 31.09157 | 121.21961 | 32146 ft | 393 kts | 255° |
| 2026-04-15 12:58 | 31.07563 | 121.15847 | 32143 ft | 395 kts | 254° |
| 2026-04-15 12:58 | 31.06002 | 121.09703 | 32150 ft | 395 kts | 255° |
| 2026-04-15 12:59 | 31.03772 | 121.00427 | 32163 ft | 396 kts | 255° |
| 2026-04-15 12:59 | 31.02276 | 120.94236 | 32167 ft | 396 kts | 255° |
| 2026-04-15 13:00 | 31.00760 | 120.88061 | 32168 ft | 396 kts | 255° |
| 2026-04-15 13:00 | 30.99247 | 120.81925 | 32168 ft | 397 kts | 255° |
| 2026-04-15 13:01 | 30.97717 | 120.75739 | 32166 ft | 397 kts | 255° |
| 2026-04-15 13:01 | 30.96197 | 120.69556 | 32162 ft | 397 kts | 255° |
| 2026-04-15 13:02 | 30.94687 | 120.63358 | 32163 ft | 397 kts | 255° |
| 2026-04-15 13:02 | 30.93170 | 120.57173 | 32159 ft | 397 kts | 255° |
| 2026-04-15 13:03 | 30.91642 | 120.50988 | 32156 ft | 398 kts | 255° |
| 2026-04-15 13:03 | 30.89743 | 120.44939 | 32148 ft | 401 kts | 243° |
| 2026-04-15 13:04 | 30.86042 | 120.40008 | 32139 ft | 415 kts | 223° |
| 2026-04-15 13:04 | 30.81302 | 120.36112 | 32138 ft | 418 kts | 221° |
| 2026-04-15 13:05 | 30.76575 | 120.32224 | 32131 ft | 419 kts | 221° |
| 2026-04-15 13:05 | 30.71804 | 120.28298 | 32127 ft | 420 kts | 221° |
| 2026-04-15 13:06 | 30.67027 | 120.24371 | 32133 ft | 422 kts | 221° |
| 2026-04-15 13:06 | 30.62222 | 120.20433 | 32132 ft | 423 kts | 221° |
| 2026-04-15 13:07 | 30.57406 | 120.16496 | 32132 ft | 424 kts | 221° |
| 2026-04-15 13:07 | 30.52576 | 120.12557 | 32142 ft | 425 kts | 221° |
| 2026-04-15 13:08 | 30.47737 | 120.08605 | 32138 ft | 426 kts | 221° |
| 2026-04-15 13:08 | 30.42846 | 120.04706 | 32137 ft | 431 kts | 217° |
| 2026-04-15 13:09 | 30.37645 | 120.01236 | 32123 ft | 432 kts | 217° |
| 2026-04-15 13:09 | 30.32426 | 119.97764 | 32134 ft | 433 kts | 217° |
| 2026-04-15 13:10 | 30.27195 | 119.94288 | 32139 ft | 434 kts | 217° |
| 2026-04-15 13:10 | 30.21952 | 119.90801 | 32130 ft | 434 kts | 217° |
| 2026-04-15 13:11 | 30.17591 | 119.87903 | 32132 ft | 436 kts | 216° |
| 2026-04-15 13:11 | 30.11469 | 119.83849 | 32131 ft | 436 kts | 216° |
| 2026-04-15 13:12 | 30.06205 | 119.80352 | 32144 ft | 437 kts | 216° |
| 2026-04-15 13:12 | 30.01823 | 119.77440 | 32140 ft | 436 kts | 217° |
| 2026-04-15 13:13 | 29.96584 | 119.73924 | 32140 ft | 435 kts | 217° |
| 2026-04-15 13:13 | 29.91360 | 119.70401 | 32149 ft | 435 kts | 217° |
| 2026-04-15 13:14 | 29.86138 | 119.66883 | 32145 ft | 434 kts | 217° |
| 2026-04-15 13:14 | 29.81052 | 119.63177 | 32146 ft | 430 kts | 220° |